Corpus Christi Naval Air Station/Truax Field
KNGP : rendu visible

Aérodrome :











RETROUVEZ-NOUS SUR...

 
LOGIN :

S'inscrire | Disclaimer

   EN    FR    IT 

 









Légende :    VFR   VFR Marginal   IFR   IFR Intensif   IFR Très Intensif
Visi : 
Plafond : 
>= 8 km
>= 3000ft
5 à 8 km
1000 à 3000 ft
1500m à 5 km
500 à 1000 ft
800 à 1500m
200 à 500 ft
< 800m
< 200 ft
Symboles :   Orages  Brouillard  Fortes neiges  Fortes précipitations  Vent > 20 kt






- Altitude de l'aérodrome : 18 ft


KNGP - Corpus Christi Naval Air Station/Truax Field

DERNIER METAR :
  • 201056Z AUTO 16008KT 10SM CLR 21/21 A2993 RMK AO2 SLP135 T02060206

METARs EXPIRÉS :
  • 200956Z AUTO 16009KT 10SM CLR 21/20 A2993 RMK AO2 SLP134 T02060200
  • 200856Z AUTO 16008KT 10SM CLR 21/20 A2993 RMK AO2 SLP134 T02060200 58009

TAF AMD TAF KNGP
Valide du 20 à 10h jusqu'au 21 à 07h UTC


2010/2107 16008KT 9999 FEW005 SCT025 BKN350 510104 QNH2992INS
TEMPO 2010/2013 6000 BR SCT004 BKN020 BKN350
FM201500 16014G20KT 9999 FEW008 SCT025 BKN350 510104 QNH2995INS
TEMPO 2015/2018 16018G24KT FEW008 BKN025 OVC350
FM201800 15019G28KT 9999 FEW011 SCT025 BKN350 510005 QNH2987INS
FM210100 16016G24KT 9999 SCT008 SCT020 BKN350 510055 QNH2988INS
TEMPO 2101/2103 SCT008 BKN018 OVC350
FM210300 16015G21KT 9999 SCT007 BKN016 OVC350 510055 QNH2991INS AUTOMATED SENSOR METWATCH 2010 TIL 2012 T19/2012Z T28/2020Z AMD 1010 FN20044



MET'MAP, la Météo Aéronautique d'un coup d'oeil ! - Copyright ORBIFLY Décembre 2007 - Disclaimer

ORBIFLY MET'MAP TEAM :

Programmation & Développement : Alexandra Zaïnal
Conception & Développement : Baudouin d'Aumeries
Co-Programmation & Développement : Marc-Olivier Méhu
Soutien technique & logistique : Manuel Goepfert

Contact : metmap@orbifly.com




SOURCES & CREDITS :

   NOAA       Earth
Advisory